createdAt,value
2018-09-04T00:01:27.188Z,20.00
2018-09-04T00:06:20.524Z,23.42
2018-09-04T00:11:13.866Z,18.05
2018-09-04T00:16:09.355Z,20.43
2018-09-04T00:21:02.689Z,21.17
2018-09-04T00:25:55.984Z,22.22
2018-09-04T00:30:49.312Z,23.50
2018-09-04T00:35:42.647Z,21.73
2018-09-04T00:40:35.995Z,22.40
2018-09-04T00:45:29.388Z,24.43
2018-09-04T00:50:22.718Z,21.57
2018-09-04T00:55:15.993Z,22.02
2018-09-04T01:00:09.350Z,20.57
2018-09-04T01:05:02.692Z,23.90
2018-09-04T01:09:55.979Z,20.00
2018-09-04T01:14:53.096Z,20.85
2018-09-04T01:19:47.166Z,19.60
2018-09-04T01:24:40.460Z,23.83
2018-09-04T01:29:33.768Z,19.67
2018-09-04T01:34:27.094Z,23.05
2018-09-04T01:39:20.404Z,22.67
2018-09-04T01:44:13.678Z,26.20
2018-09-04T01:49:06.954Z,27.00
2018-09-04T01:54:00.238Z,28.35
2018-09-04T01:58:53.540Z,26.02
2018-09-04T02:03:46.814Z,27.37
2018-09-04T02:08:40.084Z,26.87
2018-09-04T02:13:33.363Z,27.93
2018-09-04T02:18:26.668Z,31.17
2018-09-04T02:23:19.958Z,29.27
2018-09-04T02:28:14.015Z,26.80
2018-09-04T02:33:07.383Z,30.82
2018-09-04T02:38:00.700Z,29.12
2018-09-04T02:42:53.946Z,28.50
2018-09-04T02:47:47.198Z,27.37
2018-09-04T02:52:40.585Z,26.87
2018-09-04T02:57:33.841Z,29.48
2018-09-04T03:02:27.126Z,27.05
2018-09-04T03:16:44.642Z,29.98
2018-09-04T03:21:37.986Z,28.95
2018-09-04T03:26:31.318Z,26.62
2018-09-04T03:31:25.235Z,27.60
2018-09-04T03:36:19.354Z,28.67
2018-09-04T03:41:12.628Z,29.80
2018-09-04T03:46:07.018Z,31.85
2018-09-04T03:51:00.488Z,29.95
2018-09-04T03:55:53.766Z,29.15
2018-09-04T04:00:47.051Z,27.25
2018-09-04T04:05:40.295Z,27.90
2018-09-04T04:10:33.596Z,31.27
2018-09-04T04:15:26.947Z,27.62
2018-09-04T04:20:20.411Z,31.77
2018-09-04T04:25:13.681Z,32.90
2018-09-04T04:30:07.111Z,35.23
2018-09-04T04:35:00.473Z,34.95
2018-09-04T04:39:53.831Z,31.50
2018-09-04T04:44:47.110Z,31.87
2018-09-04T04:49:40.390Z,29.02
2018-09-04T04:54:33.742Z,35.23
2018-09-04T04:59:27.011Z,31.87
2018-09-04T05:04:20.275Z,33.35
2018-09-04T05:09:13.650Z,31.15
2018-09-04T05:14:06.962Z,30.75
2018-09-04T05:19:00.301Z,32.53
2018-09-04T05:23:54.343Z,32.33
2018-09-04T05:28:47.696Z,35.23
2018-09-04T05:33:42.594Z,34.13
2018-09-04T05:38:36.507Z,33.18
2018-09-04T05:43:33.205Z,35.28
2018-09-04T05:48:26.650Z,32.65
2018-09-04T05:53:20.045Z,34.67
2018-09-04T05:58:13.532Z,34.53
2018-09-04T06:03:06.897Z,36.08
2018-09-04T06:08:00.382Z,30.70
2018-09-04T06:12:53.839Z,37.33
2018-09-04T06:17:47.146Z,29.82
2018-09-04T06:22:40.429Z,32.00
2018-09-04T06:27:34.480Z,30.30
2018-09-04T06:32:28.474Z,31.10
2018-09-04T06:37:21.794Z,29.60
2018-09-04T06:42:15.221Z,29.50
2018-09-04T06:47:08.701Z,31.73
2018-09-04T06:52:02.046Z,35.38
2018-09-04T06:56:56.653Z,28.70
2018-09-04T07:01:49.930Z,33.67
2018-09-04T07:06:43.271Z,32.60
2018-09-04T07:11:36.685Z,31.20
2018-09-04T07:16:30.056Z,35.13
2018-09-04T07:21:23.352Z,38.73
2018-09-04T07:26:16.786Z,37.05
2018-09-04T07:31:10.182Z,38.02
2018-09-04T07:36:03.459Z,34.58
2018-09-04T07:40:57.060Z,34.03
2018-09-04T07:45:52.872Z,33.88
2018-09-04T07:50:46.221Z,32.03
2018-09-04T07:55:39.576Z,33.42
2018-09-04T08:00:32.997Z,32.10
2018-09-04T08:05:26.937Z,32.53
2018-09-04T08:10:20.445Z,29.07
2018-09-04T08:15:13.849Z,28.07
2018-09-04T08:20:07.927Z,26.55
2018-09-04T08:25:01.255Z,23.70
2018-09-04T08:29:54.565Z,25.85
2018-09-04T08:34:47.893Z,24.85
2018-09-04T08:39:41.144Z,25.57
2018-09-04T08:44:34.492Z,27.60
2018-09-04T08:49:27.829Z,28.15
2018-09-04T08:54:23.626Z,23.30
2018-09-04T08:59:17.153Z,23.25
2018-09-04T09:04:10.472Z,26.30
2018-09-04T09:09:06.433Z,24.02
2018-09-04T09:13:59.770Z,25.37
2018-09-04T09:18:53.224Z,21.62
2018-09-04T09:23:48.016Z,23.52
2018-09-04T09:28:42.653Z,25.08
2018-09-04T09:33:38.585Z,22.58
2018-09-04T09:38:33.233Z,23.32
2018-09-04T09:43:27.582Z,20.75
2018-09-04T09:48:25.621Z,20.88
2018-09-04T09:53:21.472Z,20.05
2018-09-04T09:58:15.559Z,20.50
2018-09-04T10:04:13.184Z,19.17
2018-09-04T10:09:08.460Z,20.15
2018-09-04T10:14:01.987Z,19.92
2018-09-04T10:18:55.305Z,21.10
2018-09-04T10:23:48.650Z,16.80
2018-09-04T10:28:42.005Z,17.92
2018-09-04T10:33:35.385Z,16.48
2018-09-04T10:38:28.738Z,19.27
2018-09-04T10:43:22.304Z,16.48
2018-09-04T10:48:20.295Z,18.48
2018-09-04T10:53:13.661Z,18.85
2018-09-04T10:58:08.589Z,16.23
2018-09-04T11:03:03.960Z,18.62
2018-09-04T11:07:58.729Z,12.58
2018-09-04T11:12:53.871Z,13.08
2018-09-04T11:17:47.170Z,11.88
2018-09-04T11:22:40.493Z,11.57
2018-09-04T11:27:33.770Z,12.70
2018-09-04T11:32:27.285Z,12.47
2018-09-04T11:37:21.313Z,11.03
2018-09-04T11:42:14.781Z,12.45
2018-09-04T11:47:08.799Z,11.88
2018-09-04T11:52:02.132Z,14.23
2018-09-04T11:56:55.445Z,12.33
2018-09-04T12:01:51.847Z,15.13
2018-09-04T12:06:45.152Z,11.88
2018-09-04T12:11:40.168Z,12.40
2018-09-04T12:16:33.601Z,11.70
2018-09-04T12:21:27.215Z,17.17
2018-09-04T12:26:21.977Z,22.32
2018-09-04T12:31:16.888Z,22.13
2018-09-04T12:36:10.818Z,16.65
2018-09-04T12:41:05.542Z,15.80
2018-09-04T12:45:59.724Z,14.58
2018-09-04T12:50:55.594Z,12.00
2018-09-04T12:55:50.645Z,14.20
2018-09-04T13:00:45.857Z,16.00
2018-09-04T13:05:41.193Z,14.65
2018-09-04T13:10:34.675Z,13.53
2018-09-04T13:15:28.185Z,13.45
2018-09-04T13:20:21.641Z,14.00
2018-09-04T13:25:14.967Z,15.23
2018-09-04T13:30:08.830Z,13.35
2018-09-04T13:35:03.173Z,13.75
2018-09-04T13:40:00.451Z,14.60
2018-09-04T13:44:55.012Z,16.40
2018-09-04T13:49:48.465Z,15.05
2018-09-04T13:54:41.655Z,13.58
2018-09-04T13:59:34.948Z,14.60
2018-09-04T14:04:28.921Z,14.15
2018-09-04T14:09:22.166Z,16.15
2018-09-04T14:14:15.394Z,16.60
2018-09-04T14:19:10.066Z,16.55
2018-09-04T14:24:03.446Z,17.12
2018-09-04T14:29:10.717Z,15.83
2018-09-04T14:33:50.531Z,15.88
2018-09-04T14:38:45.979Z,14.47
2018-09-04T14:43:40.222Z,15.15
2018-09-04T14:48:36.427Z,17.57
2018-09-04T14:53:30.462Z,15.28
2018-09-04T14:58:24.497Z,15.38
2018-09-04T15:03:18.731Z,12.60
2018-09-04T15:08:14.224Z,18.55
2018-09-04T15:13:07.750Z,14.73
2018-09-04T15:18:02.372Z,13.85
2018-09-04T15:22:58.251Z,14.07
2018-09-04T15:27:53.318Z,13.18
2018-09-04T15:32:46.923Z,13.18
2018-09-04T15:37:40.221Z,13.45
2018-09-04T15:42:33.517Z,13.83
2018-09-04T15:47:26.816Z,13.40
2018-09-04T15:52:20.071Z,12.88
2018-09-04T15:57:14.403Z,13.78
2018-09-04T16:02:07.707Z,14.83
2018-09-04T16:07:01.111Z,17.67
2018-09-04T16:11:55.978Z,16.62
2018-09-04T16:16:49.306Z,19.67
2018-09-04T16:21:43.229Z,21.25
2018-09-04T16:26:37.298Z,20.95
2018-09-04T16:31:30.676Z,22.60
2018-09-04T16:36:24.049Z,23.05
2018-09-04T16:41:17.473Z,24.43
2018-09-04T16:46:10.830Z,24.90
2018-09-04T16:51:04.233Z,25.23
2018-09-04T16:55:59.360Z,26.45
2018-09-04T17:00:52.631Z,24.45
2018-09-04T17:05:45.948Z,24.12
2018-09-04T17:10:39.540Z,24.77
2018-09-04T17:15:32.856Z,21.57
2018-09-04T17:20:26.265Z,24.67
2018-09-04T17:25:19.600Z,27.62
2018-09-04T17:30:13.260Z,23.05
2018-09-04T17:35:06.818Z,25.30
2018-09-04T17:40:00.735Z,24.67
2018-09-04T17:44:54.277Z,25.52
2018-09-04T17:49:48.160Z,27.10
2018-09-04T17:54:41.481Z,26.15
2018-09-04T17:59:34.822Z,25.92
2018-09-04T18:04:29.178Z,23.05
2018-09-04T18:09:22.675Z,24.72
2018-09-04T18:14:16.053Z,24.32
2018-09-04T18:19:09.407Z,25.48
2018-09-04T18:24:02.863Z,25.27
2018-09-04T18:28:56.292Z,28.47
2018-09-04T18:33:49.660Z,29.15
2018-09-04T18:38:43.015Z,28.62
2018-09-04T18:43:36.439Z,27.52
2018-09-04T18:48:29.679Z,29.20
2018-09-04T18:53:22.962Z,31.15
2018-09-04T18:58:16.202Z,28.12
2018-09-04T19:03:09.693Z,27.40
2018-09-04T19:08:03.296Z,31.90
2018-09-04T19:12:56.830Z,30.45
2018-09-04T19:17:50.162Z,30.68
2018-09-04T19:22:43.727Z,33.63
2018-09-04T19:27:37.336Z,28.60
2018-09-04T19:32:31.782Z,27.77
2018-09-04T19:37:25.261Z,28.17
2018-09-04T19:42:20.213Z,28.05
2018-09-04T19:47:13.652Z,27.50
2018-09-04T19:52:07.113Z,26.42
2018-09-04T19:57:00.465Z,27.98
2018-09-04T20:01:53.887Z,26.65
2018-09-04T20:06:47.278Z,27.48
2018-09-04T20:11:40.652Z,27.13
2018-09-04T20:16:34.131Z,26.00
2018-09-04T20:21:27.965Z,26.45
2018-09-04T20:26:21.267Z,28.20
2018-09-04T20:31:14.540Z,31.07
2018-09-04T20:36:08.452Z,29.15
2018-09-04T20:41:01.744Z,30.55
2018-09-04T20:45:55.091Z,34.58
2018-09-04T20:50:48.715Z,33.15
2018-09-04T20:55:42.072Z,34.50
2018-09-04T21:00:52.557Z,32.50
2018-09-04T21:06:03.126Z,35.17
2018-09-04T21:10:56.493Z,38.38
2018-09-04T21:15:50.037Z,33.80
2018-09-04T21:20:43.383Z,33.70
2018-09-04T21:25:36.682Z,33.65
2018-09-04T21:30:30.033Z,33.75
2018-09-04T21:35:24.684Z,32.90
2018-09-04T21:40:18.004Z,34.00
2018-09-04T21:45:11.826Z,37.05
2018-09-04T21:50:06.280Z,38.28
2018-09-04T21:54:59.625Z,33.35
2018-09-04T21:59:53.751Z,36.13
2018-09-04T22:04:47.028Z,33.25
2018-09-04T22:09:40.566Z,31.27
2018-09-04T22:14:33.876Z,34.53
2018-09-04T22:19:27.186Z,30.77
2018-09-04T22:24:20.542Z,33.00
2018-09-04T22:29:13.825Z,30.20
2018-09-04T22:34:07.197Z,30.85
2018-09-04T22:39:00.493Z,30.95
2018-09-04T22:43:53.833Z,34.92
2018-09-04T22:48:47.230Z,31.90
2018-09-04T22:53:40.560Z,35.60
2018-09-04T22:58:33.837Z,38.40
2018-09-04T23:03:27.147Z,38.15
2018-09-04T23:08:20.496Z,39.73
2018-09-04T23:13:13.784Z,40.33
2018-09-04T23:18:07.090Z,42.03
2018-09-04T23:23:00.370Z,36.28
2018-09-04T23:27:53.672Z,42.23
2018-09-04T23:32:47.034Z,38.73
2018-09-04T23:37:40.320Z,35.63
2018-09-04T23:42:34.986Z,35.00
2018-09-04T23:47:28.315Z,34.53
2018-09-04T23:52:21.676Z,33.95
2018-09-04T23:57:14.998Z,36.80
